createdAt,value
2019-03-24T00:01:21.135Z,22.08
2019-03-24T00:03:23.355Z,22.08
2019-03-24T00:05:25.550Z,22.06
2019-03-24T00:07:27.757Z,22.09
2019-03-24T00:09:29.960Z,22.03
2019-03-24T00:11:32.146Z,22.06
2019-03-24T00:13:34.354Z,22.03
2019-03-24T00:15:36.550Z,22.00
2019-03-24T00:17:38.757Z,22.03
2019-03-24T00:19:40.956Z,22.06
2019-03-24T00:21:43.159Z,22.02
2019-03-24T00:23:45.364Z,22.02
2019-03-24T00:25:47.555Z,22.05
2019-03-24T00:27:49.757Z,21.99
2019-03-24T00:29:51.959Z,22.00
2019-03-24T00:31:54.166Z,21.99
2019-03-24T00:33:56.372Z,21.98
2019-03-24T00:35:58.605Z,21.95
2019-03-24T00:38:00.801Z,21.92
2019-03-24T00:40:03.006Z,21.93
2019-03-24T00:42:05.202Z,21.96
2019-03-24T00:44:07.395Z,21.92
2019-03-24T00:46:09.599Z,21.92
2019-03-24T00:48:11.808Z,21.91
2019-03-24T00:50:14.016Z,21.91
2019-03-24T00:52:16.239Z,21.92
2019-03-24T00:54:18.438Z,21.91
2019-03-24T00:56:20.632Z,21.91
2019-03-24T00:58:22.843Z,21.87
2019-03-24T01:00:25.047Z,21.88
2019-03-24T01:02:27.269Z,21.87
2019-03-24T01:04:29.469Z,21.87
2019-03-24T01:06:31.679Z,21.87
2019-03-24T01:08:33.879Z,21.88
2019-03-24T01:10:36.083Z,21.85
2019-03-24T01:12:38.292Z,21.84
2019-03-24T01:14:40.495Z,21.82
2019-03-24T01:16:42.691Z,21.84
2019-03-24T01:18:44.899Z,21.84
2019-03-24T01:20:47.126Z,21.81
2019-03-24T01:22:49.322Z,21.81
2019-03-24T01:24:51.513Z,21.79
2019-03-24T01:26:53.719Z,21.79
2019-03-24T01:28:55.915Z,21.78
2019-03-24T01:30:58.106Z,21.75
2019-03-24T01:33:00.304Z,21.77
2019-03-24T01:35:02.498Z,21.74
2019-03-24T01:37:04.695Z,21.77
2019-03-24T01:39:06.898Z,21.75
2019-03-24T01:41:09.101Z,21.74
2019-03-24T01:43:11.306Z,21.72
2019-03-24T01:45:13.521Z,21.74
2019-03-24T01:47:15.731Z,21.74
2019-03-24T01:49:17.924Z,21.72
2019-03-24T01:51:20.113Z,21.74
2019-03-24T01:53:22.323Z,21.71
2019-03-24T01:55:24.525Z,21.69
2019-03-24T01:57:26.726Z,21.69
2019-03-24T01:59:28.927Z,21.68
2019-03-24T02:01:31.140Z,21.69
2019-03-24T02:03:33.344Z,21.67
2019-03-24T02:05:43.309Z,21.65
2019-03-24T02:07:45.515Z,21.64
2019-03-24T02:09:47.724Z,21.65
2019-03-24T02:11:50.924Z,21.65
2019-03-24T02:13:53.189Z,21.64
2019-03-24T02:16:09.351Z,21.64
2019-03-24T02:18:10.510Z,21.64
2019-03-24T02:20:12.700Z,21.62
2019-03-24T02:22:14.902Z,21.61
2019-03-24T02:24:17.102Z,21.60
2019-03-24T02:26:19.305Z,21.58
2019-03-24T02:28:21.501Z,21.58
2019-03-24T02:30:23.714Z,21.57
2019-03-24T02:32:25.922Z,21.54
2019-03-24T02:34:28.117Z,21.52
2019-03-24T02:36:30.321Z,21.54
2019-03-24T02:38:32.527Z,21.57
2019-03-24T02:40:34.747Z,21.52
2019-03-24T02:42:36.953Z,21.52
2019-03-24T02:44:39.150Z,21.52
2019-03-24T02:46:41.351Z,21.54
2019-03-24T02:48:43.560Z,21.54
2019-03-24T02:50:45.761Z,21.52
2019-03-24T02:52:47.956Z,21.51
2019-03-24T02:54:50.153Z,21.50
2019-03-24T02:56:52.356Z,21.50
2019-03-24T02:58:54.566Z,21.50
2019-03-24T03:00:56.776Z,21.45
2019-03-24T03:02:58.972Z,21.47
2019-03-24T03:05:01.178Z,21.47
2019-03-24T03:07:03.380Z,21.45
2019-03-24T03:09:05.605Z,21.45
2019-03-24T03:11:07.815Z,21.44
2019-03-24T03:13:10.017Z,21.45
2019-03-24T03:15:12.217Z,21.44
2019-03-24T03:17:14.410Z,21.47
2019-03-24T03:19:16.615Z,21.41
2019-03-24T03:21:18.812Z,21.41
2019-03-24T03:23:21.018Z,21.41
2019-03-24T03:25:23.224Z,21.38
2019-03-24T03:27:25.433Z,21.38
2019-03-24T03:29:27.632Z,21.40
2019-03-24T03:31:29.853Z,21.40
2019-03-24T03:33:32.063Z,21.37
2019-03-24T03:35:34.274Z,21.38
2019-03-24T03:37:36.474Z,21.38
2019-03-24T03:39:38.685Z,21.34
2019-03-24T03:41:40.888Z,21.36
2019-03-24T03:43:43.090Z,21.36
2019-03-24T03:45:45.300Z,21.36
2019-03-24T03:47:47.995Z,21.34
2019-03-24T03:49:50.196Z,21.33
2019-03-24T03:51:52.437Z,21.33
2019-03-24T03:53:54.648Z,21.31
2019-03-24T03:55:56.852Z,21.33
2019-03-24T03:57:59.053Z,21.30
2019-03-24T04:00:01.267Z,21.31
2019-03-24T04:02:03.461Z,21.30
2019-03-24T04:04:05.674Z,21.30
2019-03-24T04:06:07.877Z,21.27
2019-03-24T04:08:10.085Z,21.28
2019-03-24T04:10:12.292Z,21.31
2019-03-24T04:12:14.497Z,21.27
2019-03-24T04:14:16.702Z,21.27
2019-03-24T04:16:18.909Z,21.27
2019-03-24T04:18:21.110Z,21.24
2019-03-24T04:20:23.312Z,21.24
2019-03-24T04:22:25.532Z,21.24
2019-03-24T04:24:27.746Z,21.21
2019-03-24T04:26:29.936Z,21.23
2019-03-24T04:28:32.140Z,21.23
2019-03-24T04:30:34.342Z,21.24
2019-03-24T04:32:36.568Z,21.21
2019-03-24T04:34:38.779Z,21.21
2019-03-24T04:36:40.989Z,21.21
2019-03-24T04:38:43.211Z,21.16
2019-03-24T04:40:45.425Z,21.21
2019-03-24T04:42:47.645Z,21.19
2019-03-24T04:44:49.841Z,21.20
2019-03-24T04:46:52.035Z,21.20
2019-03-24T04:48:54.241Z,21.14
2019-03-24T04:50:56.446Z,21.16
2019-03-24T04:52:58.647Z,21.14
2019-03-24T04:55:00.838Z,21.16
2019-03-24T04:57:03.029Z,21.14
2019-03-24T04:59:05.240Z,21.13
2019-03-24T05:01:07.448Z,21.11
2019-03-24T05:03:09.667Z,21.14
2019-03-24T05:05:11.876Z,21.11
2019-03-24T05:07:14.065Z,21.11
2019-03-24T05:09:16.275Z,21.13
2019-03-24T05:11:18.472Z,21.09
2019-03-24T05:13:20.677Z,21.09
2019-03-24T05:15:22.871Z,21.11
2019-03-24T05:17:27.284Z,21.09
2019-03-24T05:19:29.702Z,21.09
2019-03-24T05:21:31.902Z,21.01
2019-03-24T05:23:34.112Z,21.04
2019-03-24T05:25:36.305Z,21.06
2019-03-24T05:27:38.500Z,21.07
2019-03-24T05:29:40.698Z,21.04
2019-03-24T05:31:42.903Z,21.07
2019-03-24T05:33:45.105Z,21.03
2019-03-24T05:35:47.305Z,20.99
2019-03-24T05:37:49.511Z,21.00
2019-03-24T05:39:51.708Z,21.06
2019-03-24T05:41:53.910Z,21.04
2019-03-24T05:43:56.115Z,21.01
2019-03-24T05:45:58.311Z,21.00
2019-03-24T05:48:00.524Z,21.00
2019-03-24T05:50:02.721Z,21.03
2019-03-24T05:52:04.923Z,20.99
2019-03-24T05:54:07.125Z,20.99
2019-03-24T05:56:09.322Z,20.97
2019-03-24T05:58:11.523Z,20.96
2019-03-24T06:00:13.717Z,20.94
2019-03-24T06:02:15.916Z,20.96
2019-03-24T06:04:18.110Z,20.99
2019-03-24T06:06:20.315Z,20.99
2019-03-24T06:08:22.542Z,20.93
2019-03-24T06:10:24.747Z,20.96
2019-03-24T06:12:26.942Z,20.96
2019-03-24T06:14:29.136Z,20.96
2019-03-24T06:16:31.329Z,20.91
2019-03-24T06:18:33.532Z,20.94
2019-03-24T06:20:35.724Z,20.91
2019-03-24T06:22:37.921Z,20.93
2019-03-24T06:24:40.129Z,20.96
2019-03-24T06:26:42.332Z,20.96
2019-03-24T06:28:44.529Z,20.94
2019-03-24T06:30:46.725Z,20.91
2019-03-24T06:32:48.921Z,20.93
2019-03-24T06:34:51.116Z,20.94
2019-03-24T06:36:53.310Z,20.94
2019-03-24T06:38:55.506Z,20.94
2019-03-24T06:40:57.701Z,20.96
2019-03-24T06:42:59.893Z,20.93
2019-03-24T06:45:02.093Z,20.94
2019-03-24T06:47:04.290Z,20.96
2019-03-24T06:49:06.489Z,20.94
2019-03-24T06:51:08.684Z,20.94
2019-03-24T06:53:10.882Z,20.97
2019-03-24T06:55:13.091Z,20.99
2019-03-24T06:57:16.970Z,20.94
2019-03-24T06:59:19.280Z,20.97
2019-03-24T07:01:21.479Z,20.97
2019-03-24T07:03:23.681Z,20.97
2019-03-24T07:05:25.876Z,21.00
2019-03-24T07:07:28.068Z,20.99
2019-03-24T07:09:30.265Z,20.99
2019-03-24T07:11:32.458Z,21.03
2019-03-24T07:13:34.652Z,21.01
2019-03-24T07:15:36.845Z,21.06
2019-03-24T07:17:39.038Z,21.03
2019-03-24T07:19:41.244Z,21.03
2019-03-24T07:21:43.441Z,21.07
2019-03-24T07:23:45.648Z,21.07
2019-03-24T07:25:47.841Z,21.06
2019-03-24T07:27:50.031Z,21.07
2019-03-24T07:29:52.235Z,21.07
2019-03-24T07:31:54.433Z,21.09
2019-03-24T07:33:56.652Z,21.10
2019-03-24T07:35:58.849Z,21.10
2019-03-24T07:38:01.055Z,21.10
2019-03-24T07:40:03.248Z,21.10
2019-03-24T07:42:05.636Z,21.11
2019-03-24T07:44:07.908Z,21.13
2019-03-24T07:46:10.108Z,21.16
2019-03-24T07:48:19.138Z,21.17
2019-03-24T07:50:19.464Z,21.16
2019-03-24T07:52:21.693Z,21.19
2019-03-24T07:54:23.893Z,21.17
2019-03-24T07:56:26.082Z,21.17
2019-03-24T07:58:28.275Z,21.21
2019-03-24T08:00:30.471Z,21.21
2019-03-24T08:02:32.676Z,21.21
2019-03-24T08:04:34.889Z,21.23
2019-03-24T08:06:37.084Z,21.21
2019-03-24T08:08:44.175Z,21.23
2019-03-24T08:10:46.447Z,21.26
2019-03-24T08:12:48.728Z,21.24
2019-03-24T08:14:50.945Z,21.30
2019-03-24T08:16:53.142Z,21.28
2019-03-24T08:18:55.363Z,21.30
2019-03-24T08:20:57.562Z,21.33
2019-03-24T08:22:59.758Z,21.31
2019-03-24T08:25:01.952Z,21.34
2019-03-24T08:27:04.144Z,21.34
2019-03-24T08:29:06.337Z,21.34
2019-03-24T08:31:08.530Z,21.37
2019-03-24T08:33:10.723Z,21.40
2019-03-24T08:35:12.921Z,21.38
2019-03-24T08:37:15.129Z,21.40
2019-03-24T08:39:17.342Z,21.42
2019-03-24T08:41:19.543Z,21.41
2019-03-24T08:43:21.737Z,21.42
2019-03-24T08:45:23.934Z,21.47
2019-03-24T08:47:26.129Z,21.47
2019-03-24T08:49:28.334Z,21.48
2019-03-24T08:51:30.531Z,21.48
2019-03-24T08:53:32.731Z,21.52
2019-03-24T08:55:34.928Z,21.52
2019-03-24T08:57:37.121Z,21.55
2019-03-24T08:59:39.338Z,21.55
2019-03-24T09:01:41.536Z,21.54
2019-03-24T09:03:43.782Z,21.55
2019-03-24T09:05:45.989Z,21.61
2019-03-24T09:07:48.183Z,21.58
2019-03-24T09:09:50.396Z,21.62
2019-03-24T09:11:52.596Z,21.64
2019-03-24T09:13:54.796Z,21.64
2019-03-24T09:15:56.991Z,21.67
2019-03-24T09:17:59.185Z,21.68
2019-03-24T09:20:01.426Z,21.69
2019-03-24T09:22:03.625Z,21.69
2019-03-24T09:24:05.818Z,21.68
2019-03-24T09:26:08.027Z,21.69
2019-03-24T09:28:10.230Z,21.69
2019-03-24T09:30:12.434Z,21.71
2019-03-24T09:32:14.638Z,21.77
2019-03-24T09:34:16.841Z,21.75
2019-03-24T09:36:19.039Z,21.78
2019-03-24T09:38:21.245Z,21.81
2019-03-24T09:40:23.446Z,21.79
2019-03-24T09:42:25.683Z,21.82
2019-03-24T09:44:27.882Z,21.82
2019-03-24T09:46:30.083Z,21.79
2019-03-24T09:48:32.279Z,21.85
2019-03-24T09:50:34.479Z,21.88
2019-03-24T09:52:36.681Z,21.88
2019-03-24T09:54:38.880Z,21.87
2019-03-24T09:56:41.073Z,21.91
2019-03-24T09:58:43.262Z,21.93
2019-03-24T10:00:45.467Z,21.95
2019-03-24T10:02:47.668Z,21.95
2019-03-24T10:04:49.865Z,21.96
2019-03-24T10:06:52.060Z,21.99
2019-03-24T10:08:54.258Z,22.00
2019-03-24T10:10:56.468Z,22.00
2019-03-24T10:12:58.659Z,21.99
2019-03-24T10:15:00.856Z,22.03
2019-03-24T10:17:03.052Z,22.03
2019-03-24T10:19:13.539Z,22.08
2019-03-24T10:21:12.421Z,22.06
2019-03-24T10:23:14.626Z,22.08
2019-03-24T10:25:16.823Z,22.11
2019-03-24T10:27:19.015Z,22.13
2019-03-24T10:29:21.232Z,22.15
2019-03-24T10:31:23.437Z,22.13
2019-03-24T10:33:25.629Z,22.18
2019-03-24T10:35:27.828Z,22.13
2019-03-24T10:37:30.021Z,22.19
2019-03-24T10:39:32.217Z,22.25
2019-03-24T10:41:34.414Z,22.26
2019-03-24T10:43:36.613Z,22.25
2019-03-24T10:45:38.811Z,22.27
2019-03-24T10:47:41.005Z,22.26
2019-03-24T10:49:43.204Z,22.29
2019-03-24T10:51:45.404Z,22.32
2019-03-24T10:53:47.598Z,22.32
2019-03-24T10:55:49.835Z,22.35
2019-03-24T10:57:52.036Z,22.32
2019-03-24T11:00:02.094Z,22.33
2019-03-24T11:02:04.347Z,22.37
2019-03-24T11:04:06.555Z,22.33
2019-03-24T11:06:08.781Z,22.37
2019-03-24T11:08:10.981Z,22.42
2019-03-24T11:10:13.186Z,22.46
2019-03-24T11:12:15.403Z,22.47
2019-03-24T11:14:17.603Z,22.47
2019-03-24T11:16:19.793Z,22.50
2019-03-24T11:18:22.016Z,22.44
2019-03-24T11:20:24.217Z,22.44
2019-03-24T11:22:26.406Z,22.54
2019-03-24T11:24:28.623Z,22.50
2019-03-24T11:26:30.817Z,22.44
2019-03-24T11:28:33.009Z,22.56
2019-03-24T11:30:35.210Z,22.60
2019-03-24T11:32:37.410Z,22.57
2019-03-24T11:34:39.630Z,22.62
2019-03-24T11:36:41.834Z,22.62
2019-03-24T11:38:44.037Z,22.66
2019-03-24T11:40:46.254Z,22.66
2019-03-24T11:42:48.453Z,22.66
2019-03-24T11:44:50.650Z,22.67
2019-03-24T11:46:52.842Z,22.68
2019-03-24T11:48:55.046Z,22.70
2019-03-24T11:50:57.242Z,22.62
2019-03-24T11:52:59.435Z,22.63
2019-03-24T11:55:01.640Z,22.62
2019-03-24T11:57:03.846Z,22.57
2019-03-24T11:59:06.067Z,22.67
2019-03-24T12:01:08.274Z,22.67
2019-03-24T12:03:10.477Z,22.68
2019-03-24T12:05:12.683Z,22.71
2019-03-24T12:07:14.886Z,22.66
2019-03-24T12:09:17.091Z,22.67
2019-03-24T12:11:19.340Z,22.74
2019-03-24T12:13:21.533Z,22.73
2019-03-24T12:15:23.736Z,22.77
2019-03-24T12:17:25.930Z,22.71
2019-03-24T12:19:28.127Z,22.74
2019-03-24T12:21:30.326Z,22.78
2019-03-24T12:23:32.520Z,22.80
2019-03-24T12:25:34.717Z,22.77
2019-03-24T12:27:36.909Z,22.80
2019-03-24T12:29:39.102Z,22.77
2019-03-24T12:31:41.295Z,22.78
2019-03-24T12:33:43.486Z,22.78
2019-03-24T12:35:45.682Z,22.81
2019-03-24T12:37:47.874Z,22.80
2019-03-24T12:39:50.067Z,22.71
2019-03-24T12:41:52.268Z,22.67
2019-03-24T12:43:54.466Z,22.68
2019-03-24T12:45:56.660Z,22.73
2019-03-24T12:47:58.853Z,22.80
2019-03-24T12:50:08.670Z,22.73
2019-03-24T12:52:08.221Z,22.77
2019-03-24T12:54:10.418Z,22.63
2019-03-24T12:56:12.622Z,22.77
2019-03-24T12:58:14.815Z,22.71
2019-03-24T13:00:17.010Z,22.64
2019-03-24T13:02:19.218Z,22.63
2019-03-24T13:04:21.416Z,22.64
2019-03-24T13:06:23.621Z,22.66
2019-03-24T13:08:25.816Z,22.71
2019-03-24T13:10:28.018Z,22.64
2019-03-24T13:12:30.211Z,22.71
2019-03-24T13:14:32.412Z,22.71
2019-03-24T13:16:34.610Z,22.70
2019-03-24T13:18:36.803Z,22.71
2019-03-24T13:20:39.039Z,22.67
2019-03-24T13:22:41.256Z,22.70
2019-03-24T13:24:43.451Z,22.84
2019-03-24T13:26:45.666Z,22.83
2019-03-24T13:28:47.871Z,22.80
2019-03-24T13:30:50.077Z,22.73
2019-03-24T13:32:52.276Z,22.77
2019-03-24T13:34:54.471Z,22.84
2019-03-24T13:36:56.676Z,22.77
2019-03-24T13:38:58.880Z,22.80
2019-03-24T13:41:01.076Z,22.81
2019-03-24T13:43:03.266Z,22.81
2019-03-24T13:45:05.463Z,22.78
2019-03-24T13:47:07.658Z,22.80
2019-03-24T13:49:09.855Z,22.87
2019-03-24T13:51:12.054Z,22.97
2019-03-24T13:53:14.257Z,23.01
2019-03-24T13:55:16.446Z,23.01
2019-03-24T13:57:18.641Z,23.07
2019-03-24T13:59:20.835Z,22.91
2019-03-24T14:01:23.032Z,22.91
2019-03-24T14:03:25.235Z,22.90
2019-03-24T14:05:27.427Z,22.98
2019-03-24T14:07:29.623Z,23.01
2019-03-24T14:09:31.824Z,23.11
2019-03-24T14:11:34.040Z,23.11
2019-03-24T14:13:36.234Z,23.11
2019-03-24T14:15:38.427Z,23.18
2019-03-24T14:17:40.625Z,23.08
2019-03-24T14:19:42.826Z,22.88
2019-03-24T14:21:45.025Z,22.98
2019-03-24T14:23:47.215Z,22.95
2019-03-24T14:25:49.420Z,22.88
2019-03-24T14:27:51.632Z,22.91
2019-03-24T14:29:53.838Z,22.97
2019-03-24T14:31:56.050Z,22.87
2019-03-24T14:33:58.252Z,22.86
2019-03-24T14:36:00.451Z,22.98
2019-03-24T14:38:02.642Z,22.86
2019-03-24T14:40:04.862Z,22.90
2019-03-24T14:42:07.059Z,22.98
2019-03-24T14:44:09.255Z,22.90
2019-03-24T14:46:11.451Z,23.04
2019-03-24T14:48:13.654Z,22.97
2019-03-24T14:50:15.849Z,22.94
2019-03-24T14:52:18.048Z,22.97
2019-03-24T14:54:20.246Z,22.86
2019-03-24T14:56:22.449Z,22.94
2019-03-24T14:58:24.652Z,22.99
2019-03-24T15:00:26.848Z,22.95
2019-03-24T15:02:29.045Z,23.04
2019-03-24T15:04:31.240Z,23.24
2019-03-24T15:06:33.440Z,23.22
2019-03-24T15:08:35.635Z,23.22
2019-03-24T15:10:37.830Z,23.05
2019-03-24T15:12:40.043Z,22.94
2019-03-24T15:14:42.246Z,23.10
2019-03-24T15:16:44.456Z,23.04
2019-03-24T15:18:46.652Z,23.22
2019-03-24T15:20:48.851Z,23.18
2019-03-24T15:22:51.069Z,23.26
2019-03-24T15:24:53.273Z,23.19
2019-03-24T15:26:55.472Z,23.10
2019-03-24T15:28:57.678Z,23.26
2019-03-24T15:30:59.871Z,23.18
2019-03-24T15:33:02.070Z,23.25
2019-03-24T15:35:04.269Z,23.24
2019-03-24T15:37:06.482Z,23.21
2019-03-24T15:39:08.688Z,23.25
2019-03-24T15:41:10.920Z,23.29
2019-03-24T15:43:13.131Z,23.29
2019-03-24T15:45:15.331Z,23.26
2019-03-24T15:47:17.529Z,23.31
2019-03-24T15:49:19.729Z,23.26
2019-03-24T15:51:21.937Z,23.21
2019-03-24T15:53:24.141Z,23.18
2019-03-24T15:55:26.342Z,23.26
2019-03-24T15:57:28.538Z,23.26
2019-03-24T15:59:30.733Z,23.29
2019-03-24T16:01:32.937Z,23.28
2019-03-24T16:03:35.128Z,23.28
2019-03-24T16:05:37.311Z,23.26
2019-03-24T16:07:39.521Z,23.34
2019-03-24T16:09:41.722Z,23.04
2019-03-24T16:11:43.929Z,23.24
2019-03-24T16:13:46.128Z,23.02
2019-03-24T16:15:48.322Z,23.18
2019-03-24T16:17:51.985Z,22.99
2019-03-24T16:19:54.278Z,23.15
2019-03-24T16:21:56.477Z,22.98
2019-03-24T16:23:58.670Z,23.17
2019-03-24T16:26:00.863Z,22.95
2019-03-24T16:28:03.056Z,23.21
2019-03-24T16:30:05.252Z,23.26
2019-03-24T16:32:07.455Z,23.25
2019-03-24T16:34:09.661Z,23.24
2019-03-24T16:36:11.869Z,23.29
2019-03-24T16:38:14.066Z,23.28
2019-03-24T16:40:16.259Z,23.18
2019-03-24T16:42:18.461Z,23.25
2019-03-24T16:44:20.657Z,22.95
2019-03-24T16:46:22.848Z,23.14
2019-03-24T16:48:36.199Z,23.10
2019-03-24T16:50:32.229Z,23.21
2019-03-24T16:52:34.433Z,23.19
2019-03-24T16:54:36.650Z,23.17
2019-03-24T16:56:38.873Z,23.22
2019-03-24T16:58:41.091Z,23.13
2019-03-24T17:00:43.282Z,23.04
2019-03-24T17:02:45.489Z,23.17
2019-03-24T17:04:47.682Z,23.21
2019-03-24T17:06:49.884Z,23.11
2019-03-24T17:08:52.088Z,23.17
2019-03-24T17:10:54.311Z,23.11
2019-03-24T17:12:56.512Z,23.14
2019-03-24T17:14:58.714Z,23.13
2019-03-24T17:17:00.952Z,23.07
2019-03-24T17:19:03.147Z,23.13
2019-03-24T17:21:05.351Z,23.14
2019-03-24T17:23:07.545Z,23.08
2019-03-24T17:25:09.737Z,23.05
2019-03-24T17:27:11.935Z,23.02
2019-03-24T17:29:14.140Z,22.98
2019-03-24T17:31:16.341Z,22.94
2019-03-24T17:33:18.543Z,22.97
2019-03-24T17:35:20.745Z,22.98
2019-03-24T17:37:22.949Z,23.01
2019-03-24T17:39:25.146Z,22.97
2019-03-24T17:41:27.346Z,23.04
2019-03-24T17:43:29.544Z,23.10
2019-03-24T17:45:31.749Z,23.05
2019-03-24T17:47:33.951Z,23.08
2019-03-24T17:49:36.144Z,23.01
2019-03-24T17:51:38.337Z,23.07
2019-03-24T17:53:40.543Z,23.10
2019-03-24T17:55:42.771Z,23.10
2019-03-24T17:57:44.975Z,23.13
2019-03-24T17:59:47.174Z,23.05
2019-03-24T18:01:49.369Z,23.13
2019-03-24T18:03:51.570Z,23.17
2019-03-24T18:05:53.772Z,23.21
2019-03-24T18:07:55.970Z,23.17
2019-03-24T18:09:58.175Z,23.18
2019-03-24T18:12:00.370Z,23.17
2019-03-24T18:14:02.563Z,23.21
2019-03-24T18:16:04.770Z,23.17
2019-03-24T18:18:06.978Z,23.17
2019-03-24T18:20:09.171Z,23.11
2019-03-24T18:22:12.048Z,23.15
2019-03-24T18:24:14.336Z,23.25
2019-03-24T18:26:16.536Z,23.21
2019-03-24T18:28:18.741Z,23.24
2019-03-24T18:30:20.939Z,23.22
2019-03-24T18:32:23.308Z,23.24
2019-03-24T18:34:25.543Z,23.24
2019-03-24T18:36:27.750Z,23.24
2019-03-24T18:38:29.943Z,23.24
2019-03-24T18:40:32.149Z,23.21
2019-03-24T18:42:34.349Z,23.22
2019-03-24T18:44:36.548Z,23.17
2019-03-24T18:46:38.750Z,23.24
2019-03-24T18:48:40.950Z,23.25
2019-03-24T18:50:43.146Z,23.25
2019-03-24T18:52:45.341Z,23.15
2019-03-24T18:54:47.535Z,23.21
2019-03-24T18:56:49.728Z,23.21
2019-03-24T18:58:51.941Z,23.25
2019-03-24T19:00:54.140Z,23.22
2019-03-24T19:02:56.345Z,23.18
2019-03-24T19:04:58.546Z,23.19
2019-03-24T19:07:00.735Z,23.18
2019-03-24T19:09:02.940Z,23.22
2019-03-24T19:11:05.141Z,23.19
2019-03-24T19:13:07.340Z,23.18
2019-03-24T19:15:09.539Z,23.18
2019-03-24T19:17:11.740Z,23.19
2019-03-24T19:19:13.942Z,23.15
2019-03-24T19:21:16.145Z,23.13
2019-03-24T19:23:18.347Z,23.14
2019-03-24T19:25:20.549Z,23.15
2019-03-24T19:27:22.752Z,23.17
2019-03-24T19:29:24.947Z,23.10
2019-03-24T19:31:27.143Z,23.10
2019-03-24T19:33:29.715Z,23.11
2019-03-24T19:35:32.030Z,23.10
2019-03-24T19:37:34.232Z,23.08
2019-03-24T19:39:36.437Z,23.07
2019-03-24T19:41:38.635Z,23.10
2019-03-24T19:43:40.831Z,23.10
2019-03-24T19:45:43.026Z,23.07
2019-03-24T19:47:45.220Z,23.04
2019-03-24T19:49:47.415Z,23.01
2019-03-24T19:51:49.611Z,23.04
2019-03-24T19:53:51.806Z,23.04
2019-03-24T19:55:54.000Z,23.01
2019-03-24T19:57:56.198Z,23.05
2019-03-24T19:59:58.388Z,22.97
2019-03-24T20:02:00.591Z,23.05
2019-03-24T20:04:02.791Z,22.99
2019-03-24T20:06:04.985Z,22.97
2019-03-24T20:08:07.180Z,22.94
2019-03-24T20:10:09.376Z,22.95
2019-03-24T20:12:11.571Z,22.94
2019-03-24T20:14:13.778Z,22.95
2019-03-24T20:16:15.980Z,22.98
2019-03-24T20:18:18.177Z,22.94
2019-03-24T20:20:20.373Z,22.94
2019-03-24T20:22:22.573Z,22.95
2019-03-24T20:24:24.769Z,22.90
2019-03-24T20:26:26.960Z,22.94
2019-03-24T20:28:29.156Z,22.88
2019-03-24T20:30:31.351Z,22.94
2019-03-24T20:32:33.544Z,22.91
2019-03-24T20:34:35.745Z,22.93
2019-03-24T20:36:37.959Z,22.90
2019-03-24T20:38:40.156Z,22.86
2019-03-24T20:40:42.355Z,22.86
2019-03-24T20:42:44.547Z,22.91
2019-03-24T20:44:46.793Z,22.90
2019-03-24T20:46:48.988Z,22.81
2019-03-24T20:48:51.194Z,22.78
2019-03-24T20:50:53.394Z,22.84
2019-03-24T20:53:05.428Z,22.83
2019-03-24T20:55:02.756Z,22.84
2019-03-24T20:57:04.952Z,22.83
2019-03-24T20:59:07.161Z,22.84
2019-03-24T21:01:09.360Z,22.78
2019-03-24T21:03:11.587Z,22.78
2019-03-24T21:05:13.793Z,22.83
2019-03-24T21:07:15.983Z,22.81
2019-03-24T21:09:18.194Z,22.83
2019-03-24T21:11:20.382Z,22.78
2019-03-24T21:13:22.579Z,22.78
2019-03-24T21:15:24.772Z,22.77
2019-03-24T21:17:26.966Z,22.80
2019-03-24T21:19:29.163Z,22.78
2019-03-24T21:21:31.359Z,22.71
2019-03-24T21:23:33.554Z,22.76
2019-03-24T21:25:35.751Z,22.74
2019-03-24T21:27:37.943Z,22.78
2019-03-24T21:29:40.139Z,22.70
2019-03-24T21:31:42.333Z,22.76
2019-03-24T21:33:44.535Z,22.73
2019-03-24T21:35:46.726Z,22.73
2019-03-24T21:37:48.920Z,22.71
2019-03-24T21:39:51.125Z,22.74
2019-03-24T21:41:53.318Z,22.71
2019-03-24T21:43:55.524Z,22.71
2019-03-24T21:45:57.719Z,22.67
2019-03-24T21:47:59.922Z,22.66
2019-03-24T21:50:02.118Z,22.68
2019-03-24T21:52:04.324Z,22.60
2019-03-24T21:54:06.531Z,22.64
2019-03-24T21:56:08.732Z,22.63
2019-03-24T21:58:10.942Z,22.64
2019-03-24T22:00:13.146Z,22.66
2019-03-24T22:02:15.452Z,22.59
2019-03-24T22:04:17.735Z,22.62
2019-03-24T22:06:19.931Z,22.59
2019-03-24T22:08:22.136Z,22.60
2019-03-24T22:10:24.343Z,22.62
2019-03-24T22:12:26.537Z,22.54
2019-03-24T22:14:28.744Z,22.60
2019-03-24T22:16:30.939Z,22.57
2019-03-24T22:18:33.132Z,22.59
2019-03-24T22:20:35.333Z,22.62
2019-03-24T22:22:37.537Z,22.57
2019-03-24T22:24:39.736Z,22.53
2019-03-24T22:26:41.940Z,22.53
2019-03-24T22:28:44.147Z,22.51
2019-03-24T22:30:46.342Z,22.54
2019-03-24T22:32:48.539Z,22.51
2019-03-24T22:34:50.738Z,22.50
2019-03-24T22:36:52.930Z,22.53
2019-03-24T22:38:55.128Z,22.53
2019-03-24T22:40:57.324Z,22.51
2019-03-24T22:42:59.528Z,22.48
2019-03-24T22:45:01.724Z,22.47
2019-03-24T22:47:03.925Z,22.53
2019-03-24T22:49:06.124Z,22.46
2019-03-24T22:51:08.317Z,22.44
2019-03-24T22:53:10.523Z,22.47
2019-03-24T22:55:12.723Z,22.44
2019-03-24T22:57:14.912Z,22.46
2019-03-24T22:59:17.135Z,22.44
2019-03-24T23:01:19.338Z,22.46
2019-03-24T23:03:21.541Z,22.44
2019-03-24T23:05:23.743Z,22.43
2019-03-24T23:07:25.935Z,22.42
2019-03-24T23:09:28.131Z,22.42
2019-03-24T23:11:30.333Z,22.43
2019-03-24T23:13:32.537Z,22.44
2019-03-24T23:15:34.746Z,22.46
2019-03-24T23:17:36.939Z,22.44
2019-03-24T23:19:39.147Z,22.46
2019-03-24T23:21:41.352Z,22.43
2019-03-24T23:23:43.542Z,22.43
2019-03-24T23:25:45.745Z,22.42
2019-03-24T23:27:47.946Z,22.39
2019-03-24T23:29:50.143Z,22.43
2019-03-24T23:31:52.341Z,22.40
2019-03-24T23:33:54.549Z,22.40
2019-03-24T23:35:56.761Z,22.35
2019-03-24T23:37:58.954Z,22.42
2019-03-24T23:40:01.229Z,22.37
2019-03-24T23:42:03.448Z,22.33
2019-03-24T23:44:05.660Z,22.35
2019-03-24T23:46:07.869Z,22.33
2019-03-24T23:48:10.060Z,22.37
2019-03-24T23:50:12.315Z,22.36
2019-03-24T23:52:14.525Z,22.35
2019-03-24T23:54:26.575Z,22.33
2019-03-24T23:56:23.886Z,22.33
2019-03-24T23:58:39.658Z,22.30
